createdAt,value
2022-11-29T00:02:55.978Z,22.92
2022-11-29T00:08:01.187Z,18.77
2022-11-29T00:13:06.349Z,19.27
2022-11-29T00:18:14.152Z,18.52
2022-11-29T00:23:19.356Z,18.20
2022-11-29T00:28:24.423Z,21.20
2022-11-29T00:33:32.215Z,24.92
2022-11-29T00:38:37.253Z,26.98
2022-11-29T00:43:42.517Z,27.60
2022-11-29T00:48:50.531Z,35.85
2022-11-29T00:53:55.726Z,27.73
2022-11-29T00:59:00.853Z,26.23
2022-11-29T01:04:08.649Z,25.13
2022-11-29T01:09:13.751Z,29.70
2022-11-29T01:14:18.835Z,25.80
2022-11-29T01:19:26.538Z,23.20
2022-11-29T01:24:33.289Z,28.80
2022-11-29T01:29:39.670Z,22.60
2022-11-29T01:34:47.419Z,21.48
2022-11-29T01:39:52.543Z,27.52
2022-11-29T01:45:10.951Z,27.85
2022-11-29T01:50:18.679Z,28.58
2022-11-29T01:55:24.019Z,32.67
2022-11-29T02:00:29.866Z,29.58
2022-11-29T02:05:37.731Z,25.08
2022-11-29T02:11:00.222Z,27.83
2022-11-29T02:16:10.387Z,26.33
2022-11-29T02:21:29.738Z,29.92
2022-11-29T02:27:13.019Z,28.52
2022-11-29T02:32:43.756Z,35.40
2022-11-29T02:38:11.531Z,31.80
2022-11-29T02:43:54.535Z,29.40
2022-11-29T02:49:08.086Z,28.52
2022-11-29T02:54:20.786Z,27.77
2022-11-29T02:59:39.800Z,28.02
2022-11-29T03:04:52.736Z,29.77
2022-11-29T03:10:04.214Z,28.25
2022-11-29T03:15:20.430Z,28.83
2022-11-29T03:20:32.717Z,34.00
2022-11-29T03:25:43.019Z,30.73
2022-11-29T03:30:54.354Z,31.90
2022-11-29T03:36:07.050Z,35.25
2022-11-29T03:41:21.162Z,27.38
2022-11-29T03:46:31.265Z,29.95
2022-11-29T03:51:52.725Z,29.05
2022-11-29T03:56:58.853Z,30.10
2022-11-29T04:02:39.164Z,29.33
2022-11-29T04:07:57.302Z,32.90
2022-11-29T04:13:29.428Z,29.63
2022-11-29T04:19:04.327Z,29.05
2022-11-29T04:24:44.922Z,32.47
2022-11-29T04:30:04.596Z,29.70
2022-11-29T04:35:23.618Z,27.73
2022-11-29T04:40:46.506Z,30.30
2022-11-29T04:46:02.355Z,31.80
2022-11-29T04:51:16.247Z,30.77
2022-11-29T04:56:29.195Z,27.00
2022-11-29T05:01:42.247Z,34.60
2022-11-29T05:06:53.138Z,30.42
2022-11-29T05:12:08.000Z,28.00
2022-11-29T05:17:28.568Z,31.83
2022-11-29T05:22:37.975Z,29.20
2022-11-29T05:27:49.724Z,28.25
2022-11-29T05:33:00.061Z,29.73
2022-11-29T05:38:14.265Z,29.67
2022-11-29T05:43:38.157Z,28.33
2022-11-29T05:48:49.793Z,29.80
2022-11-29T05:54:02.469Z,30.27
2022-11-29T05:59:12.658Z,27.73
2022-11-29T06:04:21.309Z,32.40
2022-11-29T06:09:30.938Z,30.25
2022-11-29T06:14:55.726Z,24.95
2022-11-29T06:20:23.696Z,24.65
2022-11-29T06:31:00.789Z,26.52
2022-11-29T06:36:15.109Z,26.63
2022-11-29T06:41:23.389Z,24.00
2022-11-29T06:46:39.844Z,27.27
2022-11-29T06:51:53.673Z,26.80
2022-11-29T06:57:02.318Z,28.38
2022-11-29T07:02:27.842Z,25.42
2022-11-29T07:07:34.398Z,26.17
2022-11-29T07:12:40.190Z,25.95
2022-11-29T07:17:55.382Z,28.95
2022-11-29T07:23:06.439Z,31.17
2022-11-29T07:28:19.510Z,33.22
2022-11-29T07:33:31.668Z,34.13
2022-11-29T07:38:44.593Z,30.30
2022-11-29T07:43:55.016Z,29.08
2022-11-29T07:49:05.699Z,30.98
2022-11-29T07:54:10.928Z,31.02
2022-11-29T07:59:16.064Z,29.67
2022-11-29T08:04:23.770Z,32.90
2022-11-29T08:09:28.951Z,30.15
2022-11-29T08:14:35.361Z,26.83
2022-11-29T08:19:43.111Z,29.83
2022-11-29T08:24:48.430Z,30.98
2022-11-29T08:29:53.594Z,45.65
2022-11-29T08:35:03.523Z,27.17
2022-11-29T08:40:10.268Z,27.75
2022-11-29T08:45:15.490Z,31.05
2022-11-29T08:50:23.593Z,28.88
2022-11-29T08:55:31.172Z,25.58
2022-11-29T09:00:36.914Z,29.80
2022-11-29T09:05:44.575Z,26.40
2022-11-29T09:10:50.230Z,25.52
2022-11-29T09:15:55.261Z,23.50
2022-11-29T09:21:03.390Z,25.50
2022-11-29T09:26:09.506Z,25.05
2022-11-29T09:31:16.284Z,21.35
2022-11-29T09:36:28.563Z,21.48
2022-11-29T09:41:54.611Z,25.42
2022-11-29T09:47:05.231Z,20.55
2022-11-29T09:52:19.743Z,24.10
2022-11-29T09:57:29.667Z,21.63
2022-11-29T10:02:46.096Z,27.35
2022-11-29T10:07:59.985Z,23.20
2022-11-29T10:13:19.414Z,20.45
2022-11-29T10:18:27.778Z,20.08
2022-11-29T10:23:41.011Z,29.13
2022-11-29T10:28:48.886Z,23.90
2022-11-29T10:33:54.316Z,27.58
2022-11-29T10:39:13.001Z,30.00
2022-11-29T10:44:20.663Z,30.95
2022-11-29T10:49:30.382Z,47.78
2022-11-29T10:54:42.954Z,42.40
2022-11-29T11:00:04.693Z,35.97
2022-11-29T11:05:19.058Z,31.45
2022-11-29T11:10:31.129Z,22.48
2022-11-29T11:15:37.065Z,18.77
2022-11-29T11:20:45.565Z,21.10
2022-11-29T11:26:02.185Z,15.48
2022-11-29T11:31:09.394Z,10.10
2022-11-29T11:36:17.143Z,12.68
2022-11-29T11:41:47.583Z,13.80
2022-11-29T11:46:56.470Z,11.75
2022-11-29T11:52:02.323Z,13.70
2022-11-29T11:57:19.879Z,11.43
2022-11-29T12:02:30.161Z,17.67
2022-11-29T12:08:07.325Z,23.05
2022-11-29T12:13:22.491Z,17.35
2022-11-29T12:18:31.246Z,19.25
2022-11-29T12:23:40.801Z,18.42
2022-11-29T12:28:51.047Z,25.27
2022-11-29T12:34:05.526Z,25.88
2022-11-29T12:39:23.975Z,20.02
2022-11-29T12:44:43.374Z,18.33
2022-11-29T12:49:58.819Z,16.15
2022-11-29T12:55:10.930Z,15.95
2022-11-29T13:00:20.290Z,18.65
2022-11-29T13:37:28.109Z,18.13
2022-11-29T13:49:11.376Z,21.63
2022-11-29T14:11:07.248Z,20.48
2022-11-29T14:28:53.048Z,21.17
2022-11-29T15:30:37.110Z,27.23
2022-11-29T15:36:09.921Z,21.70
2022-11-29T15:41:26.343Z,25.08
2022-11-29T15:46:41.200Z,24.58
2022-11-29T15:51:50.952Z,26.85
2022-11-29T15:56:58.203Z,27.20
2022-11-29T16:02:05.719Z,29.25
2022-11-29T16:07:13.734Z,30.60
2022-11-29T16:12:20.632Z,31.50
2022-11-29T16:17:28.535Z,35.67
2022-11-29T16:22:36.178Z,42.35
2022-11-29T16:27:41.267Z,70.97
2022-11-29T16:32:47.476Z,71.90
2022-11-29T16:37:55.254Z,72.38
2022-11-29T16:43:13.433Z,43.63
2022-11-29T16:48:38.239Z,29.17
2022-11-29T16:53:47.912Z,31.02
2022-11-29T16:59:17.350Z,32.15
2022-11-29T17:04:23.734Z,28.88
2022-11-29T17:09:34.504Z,32.00
2022-11-29T17:14:39.645Z,34.30
2022-11-29T17:19:44.944Z,35.53
2022-11-29T17:24:52.809Z,30.08
2022-11-29T17:29:58.129Z,34.53
2022-11-29T17:35:03.262Z,39.47
2022-11-29T17:40:13.876Z,43.22
2022-11-29T17:45:19.063Z,36.05
2022-11-29T17:50:24.076Z,34.88
2022-11-29T17:55:31.631Z,36.55
2022-11-29T18:00:36.593Z,41.33
2022-11-29T18:05:41.582Z,38.83
2022-11-29T18:10:52.027Z,35.72
2022-11-29T18:15:57.063Z,33.85
2022-11-29T18:21:02.421Z,37.70
2022-11-29T18:26:11.887Z,44.08
2022-11-29T18:31:18.851Z,39.55
2022-11-29T18:36:25.908Z,37.67
2022-11-29T18:41:34.608Z,43.63
2022-11-29T18:46:40.705Z,37.42
2022-11-29T18:51:47.285Z,37.92
2022-11-29T18:56:55.572Z,40.65
2022-11-29T19:02:00.745Z,40.30
2022-11-29T19:07:05.875Z,36.13
2022-11-29T19:12:13.816Z,36.08
2022-11-29T19:17:19.008Z,32.40
2022-11-29T19:22:24.117Z,31.95
2022-11-29T19:27:32.015Z,32.58
2022-11-29T19:32:44.883Z,33.45
2022-11-29T19:38:34.754Z,38.05
2022-11-29T19:44:09.865Z,39.63
2022-11-29T19:49:29.008Z,37.78
2022-11-29T19:54:34.479Z,40.90
2022-11-29T19:59:42.521Z,38.70
2022-11-29T20:04:51.743Z,35.30
2022-11-29T20:10:09.129Z,35.00
2022-11-29T20:15:17.272Z,38.20
2022-11-29T20:20:22.697Z,36.03
2022-11-29T20:25:28.067Z,38.72
2022-11-29T20:30:37.369Z,33.47
2022-11-29T20:35:42.621Z,35.08
2022-11-29T20:41:02.285Z,34.03
2022-11-29T20:46:14.620Z,35.22
2022-11-29T20:51:32.758Z,41.95
2022-11-29T20:56:41.969Z,40.33
2022-11-29T21:02:00.321Z,36.00
2022-11-29T21:07:05.553Z,39.75
2022-11-29T21:12:52.598Z,35.88
2022-11-29T21:18:04.090Z,41.13
2022-11-29T21:23:24.339Z,45.17
2022-11-29T21:28:43.742Z,40.85
2022-11-29T21:34:07.194Z,43.95
2022-11-29T21:39:23.626Z,46.05
2022-11-29T21:44:28.754Z,45.22
2022-11-29T21:49:43.391Z,45.47
2022-11-29T21:54:48.934Z,52.10
2022-11-29T22:00:00.545Z,52.35
2022-11-29T22:05:11.723Z,50.95
2022-11-29T22:10:17.245Z,48.42
2022-11-29T22:15:25.099Z,51.45
2022-11-29T22:20:33.393Z,45.00
2022-11-29T22:25:41.173Z,43.90
2022-11-29T22:30:46.476Z,46.95
2022-11-29T22:35:56.744Z,41.28
2022-11-29T22:41:05.711Z,44.08
2022-11-29T22:46:12.578Z,47.25
2022-11-29T22:51:22.045Z,42.97
2022-11-29T22:56:31.393Z,50.22
2022-11-29T23:01:37.781Z,45.50
2022-11-29T23:06:46.888Z,43.28
2022-11-29T23:11:56.446Z,45.85
2022-11-29T23:17:01.653Z,47.70
2022-11-29T23:22:09.419Z,41.17
2022-11-29T23:27:14.391Z,46.65
2022-11-29T23:32:19.447Z,45.58
2022-11-29T23:37:27.376Z,42.95
2022-11-29T23:42:32.500Z,42.92
2022-11-29T23:47:37.482Z,38.22
2022-11-29T23:52:45.207Z,41.42
2022-11-29T23:57:50.284Z,41.45
